Time;durP1;ratioP1;P1;durP2;ratioP2;P2;SDS_P1;SDS_P2;PMS_P1;PMS_P2;Temp;Humidity;BMP_temperature;BMP_pressure;BME280_temperature;BME280_humidity;BME280_pressure;Samples;Min_cycle;Max_cycle;Signal;HPM_P1;HPM_P2
2023/01/20 00:00:07;;;;;;;;;;;2.40;99.90;;;;;;5121091;28;19928;-82
2023/01/20 00:02:39;;;;;;;;;;;2.50;99.90;;;;;;5119866;28;19924;-82
2023/01/20 00:05:06;;;;;;;;;;;2.50;99.90;;;;;;5111316;28;19919;-83
2023/01/20 00:07:34;;;;;;;;;;;2.60;99.90;;;;;;5107505;28;19939;-82
2023/01/20 00:10:03;;;;;;;;;;;2.60;99.90;;;;;;5112599;28;19928;-82
2023/01/20 00:12:30;;;;;;;;;;;2.70;99.90;;;;;;5094535;28;19932;-83
2023/01/20 00:14:59;;;;;;;;;;;2.70;99.90;;;;;;5123486;28;19935;-82
2023/01/20 00:17:26;;;;;;;;;;;2.70;99.90;;;;;;5088080;28;19935;-82
2023/01/20 00:19:52;;;;;;;;;;;2.70;99.90;;;;;;5021598;28;19932;-83
2023/01/20 00:22:20;;;;;;;;;;;2.70;99.90;;;;;;5069269;28;19922;-83
2023/01/20 00:24:47;;;;;;;;;;;2.70;99.90;;;;;;5045689;28;19930;-83
2023/01/20 00:27:14;;;;;;;;;;;2.80;99.90;;;;;;5080657;28;19923;-82
2023/01/20 00:29:43;;;;;;;;;;;2.80;99.90;;;;;;5010574;28;19949;-82
2023/01/20 00:32:11;;;;;;;;;;;2.80;99.90;;;;;;5076618;28;19932;-82
2023/01/20 00:34:38;;;;;;;;;;;2.90;99.90;;;;;;5055151;28;20316;-81
2023/01/20 00:37:04;;;;;;;;;;;2.90;99.90;;;;;;5071358;28;19937;-82
2023/01/20 00:39:31;;;;;;;;;;;2.90;99.90;;;;;;5039638;28;19932;-82
2023/01/20 00:41:58;;;;;;;;;;;3.00;99.90;;;;;;5068870;28;19986;-82
2023/01/20 00:44:24;;;;;;;;;;;3.00;99.90;;;;;;5049298;28;19929;-82
2023/01/20 00:46:51;;;;;;;;;;;3.10;99.90;;;;;;5054048;28;19923;-82
2023/01/20 00:49:19;;;;;;;;;;;3.10;99.90;;;;;;5033388;28;19929;-82
2023/01/20 00:51:46;;;;;;;;;;;3.10;99.90;;;;;;5048672;28;19934;-82
2023/01/20 00:54:13;;;;;;;;;;;3.10;99.90;;;;;;5050216;28;19929;-82
2023/01/20 00:56:39;;;;;;;;;;;3.10;99.90;;;;;;5044410;28;19977;-82
2023/01/20 00:59:06;;;;;;;;;;;3.20;99.90;;;;;;5087269;28;19981;-81
2023/01/20 01:01:33;;;;;;;;;;;3.20;99.90;;;;;;5097524;28;19929;-80
2023/01/20 01:04:00;;;;;;;;;;;3.20;99.90;;;;;;5074813;28;19926;-81
2023/01/20 01:06:28;;;;;;;;;;;3.20;99.90;;;;;;5073897;28;19936;-80
2023/01/20 01:08:55;;;;;;;;;;;3.20;99.90;;;;;;5034949;28;19929;-81
2023/01/20 01:11:22;;;;;;;;;;;3.20;99.90;;;;;;5033657;28;19933;-82
2023/01/20 01:13:49;;;;;;;;;;;3.20;99.90;;;;;;5009341;28;19929;-82
2023/01/20 01:16:16;;;;;;;;;;;3.20;99.90;;;;;;5086536;28;20036;-81
2023/01/20 01:18:43;;;;;;;;;;;3.20;99.90;;;;;;5099636;28;20337;-81
2023/01/20 01:21:10;;;;;;;;;;;3.20;99.90;;;;;;5095736;28;19930;-81
2023/01/20 01:23:38;;;;;;;;;;;3.20;99.90;;;;;;5092560;28;19932;-82
2023/01/20 01:26:06;;;;;;;;;;;3.20;99.90;;;;;;5109057;28;19934;-81
2023/01/20 01:28:32;;;;;;;;;;;3.20;99.90;;;;;;5098746;28;19930;-82
2023/01/20 01:31:00;;;;;;;;;;;3.20;99.90;;;;;;5107189;28;19934;-82
2023/01/20 01:33:26;;;;;;;;;;;3.20;99.90;;;;;;5113824;28;19930;-82
2023/01/20 01:35:56;;;;;;;;;;;3.30;99.90;;;;;;5109108;28;19928;-81
2023/01/20 01:38:23;;;;;;;;;;;3.30;99.90;;;;;;5113531;28;19927;-81
2023/01/20 01:40:52;;;;;;;;;;;3.30;99.90;;;;;;5114869;28;19928;-82
2023/01/20 01:43:23;;;;;;;;;;;3.30;99.90;;;;;;5106657;28;19935;-82
2023/01/20 01:45:49;;;;;;;;;;;3.30;99.90;;;;;;5111437;28;20411;-82
2023/01/20 01:48:17;;;;;;;;;;;3.40;99.90;;;;;;5105421;28;19935;-82
2023/01/20 01:50:46;;;;;;;;;;;3.40;99.90;;;;;;5113784;28;19931;-81
2023/01/20 01:53:13;;;;;;;;;;;3.40;99.90;;;;;;5094789;28;19988;-81
2023/01/20 01:55:42;;;;;;;;;;;3.40;99.90;;;;;;5087741;28;19934;-82
2023/01/20 01:58:12;;;;;;;;;;;3.40;99.90;;;;;;5102435;28;19966;-81
2023/01/20 02:00:39;;;;;;;;;;;3.30;99.90;;;;;;5114174;28;20406;-81
2023/01/20 02:03:07;;;;;;;;;;;3.40;99.90;;;;;;5095751;28;19930;-81
2023/01/20 02:05:35;;;;;;;;;;;3.30;99.90;;;;;;5095280;28;19928;-80
2023/01/20 02:08:02;;;;;;;;;;;3.30;99.90;;;;;;5095116;28;20420;-81
2023/01/20 02:10:30;;;;;;;;;;;3.70;99.90;;;;;;5095072;28;19928;-81
2023/01/20 02:12:57;;;;;;;;;;;3.30;99.90;;;;;;5089623;28;20258;-82
2023/01/20 02:15:27;;;;;;;;;;;3.30;99.90;;;;;;5089993;28;20034;-81
2023/01/20 02:18:05;;;;;;;;;;;3.30;99.90;;;;;;5112104;28;19934;-81
2023/01/20 02:20:50;;;;;;;;;;;3.20;99.90;;;;;;5113615;28;20359;-81
2023/01/20 02:23:20;;;;;;;;;;;3.20;99.90;;;;;;5095135;28;19934;-82
2023/01/20 02:26:08;;;;;;;;;;;3.20;99.90;;;;;;5115573;28;19928;-82
2023/01/20 02:29:02;;;;;;;;;;;3.20;99.90;;;;;;5111132;28;19935;-82
2023/01/20 02:31:46;;;;;;;;;;;3.20;99.90;;;;;;5110775;28;19935;-83
2023/01/20 02:34:16;;;;;;;;;;;3.20;99.90;;;;;;5094116;28;19924;-82
2023/01/20 02:36:45;;;;;;;;;;;3.20;99.90;;;;;;5104833;28;19924;-82
2023/01/20 02:39:15;;;;;;;;;;;3.10;99.90;;;;;;5104166;28;19928;-82
2023/01/20 02:41:46;;;;;;;;;;;3.10;99.90;;;;;;5095577;28;19927;-82
2023/01/20 02:44:17;;;;;;;;;;;3.10;99.90;;;;;;5114215;28;19924;-82
2023/01/20 02:46:48;;;;;;;;;;;3.10;99.90;;;;;;5106229;27;20461;-82
2023/01/20 02:49:18;;;;;;;;;;;3.10;99.90;;;;;;5089118;28;20044;-81
2023/01/20 02:51:49;;;;;;;;;;;3.10;99.90;;;;;;5123958;28;20402;-82
2023/01/20 02:54:17;;;;;;;;;;;3.10;99.90;;;;;;5121805;28;20017;-81
2023/01/20 02:56:43;;;;;;;;;;;3.10;99.90;;;;;;5110644;28;20411;-82
2023/01/20 02:59:13;;;;;;;;;;;3.10;99.90;;;;;;5094959;28;19935;-81
2023/01/20 03:01:41;;;;;;;;;;;3.10;99.90;;;;;;5094999;28;19932;-82
2023/01/20 03:04:10;;;;;;;;;;;3.10;99.90;;;;;;5093625;28;19924;-82
2023/01/20 03:06:42;;;;;;;;;;;3.10;99.90;;;;;;5093489;28;19967;-81
2023/01/20 03:09:10;;;;;;;;;;;3.10;99.90;;;;;;5110871;28;19927;-82
2023/01/20 03:11:39;;;;;;;;;;;3.10;99.90;;;;;;5108052;28;19924;-82
2023/01/20 03:14:08;;;;;;;;;;;3.10;99.90;;;;;;5105129;28;19928;-81
2023/01/20 03:16:35;;;;;;;;;;;3.10;99.90;;;;;;5094371;28;19928;-81
2023/01/20 03:19:02;;;;;;;;;;;3.10;99.90;;;;;;5080044;28;20116;-82
2023/01/20 03:21:28;;;;;;;;;;;3.20;99.90;;;;;;5101905;28;19928;-81
2023/01/20 03:23:59;;;;;;;;;;;3.20;99.90;;;;;;5106648;28;19928;-82
2023/01/20 03:26:26;;;;;;;;;;;3.20;99.90;;;;;;5091083;28;19927;-81
2023/01/20 03:28:53;;;;;;;;;;;3.20;99.90;;;;;;5110602;28;19939;-82
2023/01/20 03:31:21;;;;;;;;;;;3.10;99.90;;;;;;5109291;28;20621;-82
2023/01/20 03:33:49;;;;;;;;;;;3.10;99.90;;;;;;5111130;28;19924;-81
2023/01/20 03:36:16;;;;;;;;;;;3.10;99.90;;;;;;5110534;28;19931;-81
2023/01/20 03:38:43;;;;;;;;;;;3.10;99.90;;;;;;5098519;28;20015;-81
2023/01/20 03:41:16;;;;;;;;;;;3.10;99.90;;;;;;5093200;28;19927;-81
2023/01/20 03:43:45;;;;;;;;;;;3.10;99.90;;;;;;5085515;28;20342;-81
2023/01/20 03:46:14;;;;;;;;;;;3.10;99.90;;;;;;5106564;28;19927;-81
2023/01/20 03:48:46;;;;;;;;;;;3.60;99.90;;;;;;5102875;28;19935;-81
2023/01/20 03:51:16;;;;;;;;;;;3.10;99.90;;;;;;5108062;28;19936;-81
2023/01/20 03:53:46;;;;;;;;;;;3.10;99.90;;;;;;5095892;28;19934;-81
2023/01/20 03:56:16;;;;;;;;;;;3.10;99.90;;;;;;5105211;28;19932;-82
2023/01/20 03:58:45;;;;;;;;;;;3.10;99.90;;;;;;5088928;28;19942;-81
2023/01/20 04:01:13;;;;;;;;;;;3.10;99.90;;;;;;5123818;27;19928;-81
2023/01/20 04:03:42;;;;;;;;;;;3.00;99.90;;;;;;5099177;28;20317;-80
2023/01/20 04:06:11;;;;;;;;;;;3.00;99.90;;;;;;5094685;28;19967;-81
2023/01/20 04:08:41;;;;;;;;;;;3.00;99.90;;;;;;5099587;28;20347;-80
2023/01/20 04:11:08;;;;;;;;;;;3.00;99.90;;;;;;5120089;28;19935;-81
2023/01/20 04:13:36;;;;;;;;;;;3.10;99.90;;;;;;5095959;28;19924;-81
2023/01/20 04:16:03;;;;;;;;;;;;;;;;;;5100973;28;19928;-81
2023/01/20 04:18:30;;;;;;;;;;;3.00;99.90;;;;;;5116978;28;19932;-81
2023/01/20 04:20:58;;;;;;;;;;;3.00;99.90;;;;;;5096139;28;19928;-81
2023/01/20 04:23:29;;;;;;;;;;;3.10;99.90;;;;;;5098463;28;19935;-81
2023/01/20 04:25:55;;;;;;;;;;;3.10;99.90;;;;;;5108030;28;19927;-81
2023/01/20 04:28:22;;;;;;;;;;;3.10;99.90;;;;;;5129096;28;20017;-80
2023/01/20 04:30:50;;;;;;;;;;;3.10;99.90;;;;;;5112330;28;19924;-81
2023/01/20 04:33:17;;;;;;;;;;;3.10;99.90;;;;;;5123594;28;19920;-82
2023/01/20 04:35:44;;;;;;;;;;;3.20;99.90;;;;;;5121898;28;19949;-83
2023/01/20 04:38:10;;;;;;;;;;;3.20;99.90;;;;;;5091081;28;19928;-83
2023/01/20 04:40:37;;;;;;;;;;;3.20;99.90;;;;;;5092037;28;20001;-83
2023/01/20 04:43:04;;;;;;;;;;;3.20;99.90;;;;;;5108496;28;20366;-82
2023/01/20 04:45:31;;;;;;;;;;;3.20;99.90;;;;;;5094391;28;19934;-82
2023/01/20 04:47:59;;;;;;;;;;;3.20;99.90;;;;;;5110949;28;19954;-84
2023/01/20 04:50:25;;;;;;;;;;;3.20;99.90;;;;;;5092392;28;19924;-82
2023/01/20 04:52:54;;;;;;;;;;;3.20;99.90;;;;;;5121047;28;19928;-82
2023/01/20 04:55:20;;;;;;;;;;;3.20;99.90;;;;;;5118915;28;19927;-82
2023/01/20 04:57:47;;;;;;;;;;;3.20;99.90;;;;;;5114543;28;19924;-82
2023/01/20 05:00:19;;;;;;;;;;;3.20;99.90;;;;;;5098362;28;19950;-83
2023/01/20 05:02:46;;;;;;;;;;;3.20;99.90;;;;;;5092184;28;20609;-82
2023/01/20 05:05:14;;;;;;;;;;;3.20;99.90;;;;;;5097985;28;19953;-82
2023/01/20 05:07:41;;;;;;;;;;;3.20;99.90;;;;;;5094249;28;20308;-82
2023/01/20 05:10:09;;;;;;;;;;;3.20;99.90;;;;;;5095964;28;19928;-83
2023/01/20 05:12:36;;;;;;;;;;;3.10;99.90;;;;;;5109777;28;19932;-82
2023/01/20 05:15:03;;;;;;;;;;;3.10;99.90;;;;;;5094566;28;19986;-83
2023/01/20 05:17:29;;;;;;;;;;;3.20;99.90;;;;;;5090274;28;19927;-83
2023/01/20 05:19:56;;;;;;;;;;;3.20;99.90;;;;;;5103579;28;19928;-83
2023/01/20 05:22:27;;;;;;;;;;;3.20;99.90;;;;;;5116429;28;19939;-86
2023/01/20 05:24:53;;;;;;;;;;;3.20;99.90;;;;;;5116071;28;19940;-84
2023/01/20 05:27:20;;;;;;;;;;;3.20;99.90;;;;;;5112122;28;19927;-84
2023/01/20 05:29:47;;;;;;;;;;;3.20;99.90;;;;;;5120586;28;19950;-85
2023/01/20 05:32:15;;;;;;;;;;;3.20;99.90;;;;;;5112817;28;19923;-87
2023/01/20 05:34:43;;;;;;;;;;;3.20;99.90;;;;;;5096859;28;19923;-86
2023/01/20 05:37:10;;;;;;;;;;;3.20;99.90;;;;;;5096656;28;19943;-87
2023/01/20 05:39:38;;;;;;;;;;;3.20;99.90;;;;;;5115046;28;19939;-88
2023/01/20 05:42:05;;;;;;;;;;;3.20;99.90;;;;;;5096610;28;20349;-87
2023/01/20 05:44:32;;;;;;;;;;;3.10;99.90;;;;;;5097911;28;19981;-87
2023/01/20 05:46:59;;;;;;;;;;;3.20;99.90;;;;;;5098673;28;19939;-87
2023/01/20 05:49:29;;;;;;;;;;;3.10;99.90;;;;;;5102135;28;19923;-87
2023/01/20 05:51:56;;;;;;;;;;;3.10;99.90;;;;;;5099038;28;19924;-86
2023/01/20 05:54:24;;;;;;;;;;;3.10;99.90;;;;;;5098047;28;20095;-87
2023/01/20 05:56:53;;;;;;;;;;;3.10;99.90;;;;;;5116458;28;20093;-86
2023/01/20 05:59:19;;;;;;;;;;;4.00;99.90;;;;;;5117023;28;19927;-87
2023/01/20 06:01:46;;;;;;;;;;;3.00;99.90;;;;;;5094502;28;19925;-86
2023/01/20 06:04:13;;;;;;;;;;;3.00;99.90;;;;;;5086725;28;20030;-84
2023/01/20 06:06:40;;;;;;;;;;;3.10;99.90;;;;;;5095500;28;19931;-84
2023/01/20 06:09:09;;;;;;;;;;;3.10;99.90;;;;;;5100567;28;19928;-85
2023/01/20 06:11:36;;;;;;;;;;;3.10;99.90;;;;;;5111270;28;19924;-85
2023/01/20 06:14:05;;;;;;;;;;;4.60;99.90;;;;;;5094445;28;19934;-84
2023/01/20 06:16:31;;;;;;;;;;;3.20;99.90;;;;;;5112832;28;20019;-85
2023/01/20 06:18:58;;;;;;;;;;;2.90;99.90;;;;;;5112277;28;19928;-84
2023/01/20 06:21:25;;;;;;;;;;;3.20;99.90;;;;;;5106974;28;19928;-85
2023/01/20 06:23:54;;;;;;;;;;;3.20;99.90;;;;;;5105674;28;19934;-85
2023/01/20 06:26:22;;;;;;;;;;;3.20;99.90;;;;;;5095795;28;19927;-84
2023/01/20 06:28:48;;;;;;;;;;;3.10;99.90;;;;;;5114079;28;19946;-82
2023/01/20 06:31:17;;;;;;;;;;;3.10;99.90;;;;;;5092393;28;19950;-84
2023/01/20 06:33:44;;;;;;;;;;;4.30;99.90;;;;;;5111183;28;19936;-85
2023/01/20 06:36:12;;;;;;;;;;;3.00;99.90;;;;;;5100267;28;19967;-84
2023/01/20 06:38:39;;;;;;;;;;;3.00;99.90;;;;;;5086879;28;20077;-84
2023/01/20 06:41:06;;;;;;;;;;;3.00;99.90;;;;;;5111749;28;19927;-84
2023/01/20 06:43:34;;;;;;;;;;;3.00;99.90;;;;;;5106998;28;20018;-82
2023/01/20 06:46:01;;;;;;;;;;;3.00;99.90;;;;;;5113527;28;19924;-82
2023/01/20 06:48:29;;;;;;;;;;;3.00;99.90;;;;;;5120455;28;20341;-83
2023/01/20 06:51:00;;;;;;;;;;;3.00;99.90;;;;;;5092858;28;19950;-83
2023/01/20 06:53:26;;;;;;;;;;;3.00;99.90;;;;;;5107302;28;19928;-84
2023/01/20 06:55:54;;;;;;;;;;;3.00;99.90;;;;;;5102699;28;19927;-83
2023/01/20 06:58:24;;;;;;;;;;;3.10;99.90;;;;;;5096246;28;19928;-84
2023/01/20 07:00:53;;;;;;;;;;;3.10;99.90;;;;;;5089505;28;19970;-82
2023/01/20 07:03:20;;;;;;;;;;;3.10;99.90;;;;;;5114245;28;19949;-83
2023/01/20 07:05:53;;;;;;;;;;;3.10;99.90;;;;;;5120733;28;19912;-80
2023/01/20 07:08:22;;;;;;;;;;;3.60;99.90;;;;;;5104523;28;19935;-82
2023/01/20 07:10:49;;;;;;;;;;;3.10;99.90;;;;;;5096405;28;19924;-83
2023/01/20 07:13:16;;;;;;;;;;;3.10;99.90;;;;;;5113105;28;19935;-84
2023/01/20 07:15:43;;;;;;;;;;;3.20;99.90;;;;;;5087213;28;19923;-84
2023/01/20 07:18:10;;;;;;;;;;;3.20;99.90;;;;;;5111264;28;20035;-84
2023/01/20 07:20:37;;;;;;;;;;;3.30;99.90;;;;;;5095802;28;19968;-84
2023/01/20 07:23:06;;;;;;;;;;;3.20;99.90;;;;;;5091576;28;19954;-85
2023/01/20 07:25:32;;;;;;;;;;;3.20;99.90;;;;;;5102172;28;20409;-84
2023/01/20 07:27:59;;;;;;;;;;;3.20;99.90;;;;;;5090650;28;19948;-83
2023/01/20 07:30:26;;;;;;;;;;;3.20;99.90;;;;;;5093805;28;19934;-82
2023/01/20 07:32:53;;;;;;;;;;;3.10;99.90;;;;;;5111984;28;19935;-84
2023/01/20 07:35:20;;;;;;;;;;;3.20;99.90;;;;;;5094037;28;19927;-83
2023/01/20 07:37:47;;;;;;;;;;;3.10;99.90;;;;;;5092533;28;19950;-83
2023/01/20 07:40:15;;;;;;;;;;;3.10;99.90;;;;;;5092090;28;19923;-83
2023/01/20 07:42:41;;;;;;;;;;;3.10;99.90;;;;;;5092494;28;20371;-81
2023/01/20 07:45:09;;;;;;;;;;;4.10;99.90;;;;;;5089029;27;19923;-86
2023/01/20 07:47:36;;;;;;;;;;;3.20;99.90;;;;;;5091254;28;19927;-84
2023/01/20 07:53:07;;;;;;;;;;;3.10;99.90;;;;;;5090104;28;20006;-86
2023/01/20 07:55:35;;;;;;;;;;;3.10;99.90;;;;;;5093425;28;19927;-86
2023/01/20 07:58:02;;;;;;;;;;;3.10;99.90;;;;;;5095712;28;19928;-86
2023/01/20 08:00:29;;;;;;;;;;;3.10;99.90;;;;;;5112549;28;19931;-86
2023/01/20 08:02:56;;;;;;;;;;;3.10;99.90;;;;;;5118118;28;19940;-88
2023/01/20 08:05:23;;;;;;;;;;;3.10;99.90;;;;;;5113468;28;19953;-86
2023/01/20 08:07:52;;;;;;;;;;;3.10;99.90;;;;;;5111040;28;19991;-87
2023/01/20 08:10:18;;;;;;;;;;;3.20;99.90;;;;;;5123527;28;19970;-86
2023/01/20 08:12:47;;;;;;;;;;;3.20;99.90;;;;;;5107362;28;20408;-84
2023/01/20 08:15:13;;;;;;;;;;;3.20;99.90;;;;;;5111594;28;19934;-85
2023/01/20 08:17:40;;;;;;;;;;;3.20;99.90;;;;;;5040520;28;19934;-85
2023/01/20 08:20:08;;;;;;;;;;;3.30;99.90;;;;;;5013911;28;19935;-85
2023/01/20 08:22:35;;;;;;;;;;;3.30;99.90;;;;;;5008096;28;20005;-85
2023/01/20 08:25:02;;;;;;;;;;;3.30;99.90;;;;;;5024100;28;19929;-85
2023/01/20 08:27:28;;;;;;;;;;;3.30;99.90;;;;;;5020588;28;19925;-85
2023/01/20 08:29:56;;;;;;;;;;;1.10;99.90;;;;;;5036962;28;19952;-86
2023/01/20 08:32:23;;;;;;;;;;;3.40;99.90;;;;;;5017460;28;19930;-86
2023/01/20 08:34:50;;;;;;;;;;;3.40;99.90;;;;;;5058212;28;19927;-86
2023/01/20 08:37:17;;;;;;;;;;;3.60;99.90;;;;;;5037811;28;19924;-87
2023/01/20 08:39:43;;;;;;;;;;;3.40;99.90;;;;;;5076954;28;19936;-85
2023/01/20 08:42:10;;;;;;;;;;;3.40;99.90;;;;;;5010663;28;19952;-86
2023/01/20 08:44:37;;;;;;;;;;;4.10;99.90;;;;;;5024148;28;19924;-86
2023/01/20 08:47:05;;;;;;;;;;;4.70;99.90;;;;;;5044590;28;19927;-85
2023/01/20 08:49:32;;;;;;;;;;;2.90;99.90;;;;;;5058966;28;19953;-85
2023/01/20 08:52:01;;;;;;;;;;;3.50;99.90;;;;;;5002873;28;19913;-86
2023/01/20 08:54:33;;;;;;;;;;;3.50;99.90;;;;;;5140756;28;20086;-85
2023/01/20 08:57:05;;;;;;;;;;;3.60;99.90;;;;;;5124997;28;19916;-84
2023/01/20 08:59:32;;;;;;;;;;;3.60;99.90;;;;;;5081271;28;19947;-85
2023/01/20 09:02:00;;;;;;;;;;;3.30;99.90;;;;;;5014119;28;19952;-86
2023/01/20 09:04:29;;;;;;;;;;;3.60;99.90;;;;;;5008290;28;19914;-87
2023/01/20 09:10:14;;;;;;;;;;;3.70;99.90;;;;;;5023047;28;19957;-86
2023/01/20 09:12:41;;;;;;;;;;;3.70;99.90;;;;;;5020435;28;19960;-87
2023/01/20 09:15:09;;;;;;;;;;;3.70;99.90;;;;;;5022658;28;19997;-87
2023/01/20 09:17:36;;;;;;;;;;;3.80;99.90;;;;;;5035740;28;19925;-86
2023/01/20 09:20:04;;;;;;;;;;;3.80;99.90;;;;;;5007593;28;19930;-85
2023/01/20 09:22:32;;;;;;;;;;;3.90;99.90;;;;;;5005612;28;19936;-85
2023/01/20 09:24:59;;;;;;;;;;;3.90;99.90;;;;;;5026772;28;19929;-85
2023/01/20 09:27:27;;;;;;;;;;;3.90;99.90;;;;;;5038115;28;19940;-87
2023/01/20 09:29:54;;;;;;;;;;;3.90;99.90;;;;;;5045027;28;19927;-84
2023/01/20 09:32:21;;;;;;;;;;;3.90;99.90;;;;;;5047977;28;20391;-85
2023/01/20 09:34:47;;;;;;;;;;;3.90;99.90;;;;;;5035406;28;20778;-86
2023/01/20 09:45:38;;;;;;;;;;;4.10;99.90;;;;;;5055811;28;19923;-86
2023/01/20 09:48:13;;;;;;;;;;;4.20;99.90;;;;;;5011880;28;19929;-85
2023/01/20 09:53:39;;;;;;;;;;;4.20;99.90;;;;;;5066862;28;19924;-86
2023/01/20 09:56:10;;;;;;;;;;;4.30;99.90;;;;;;5040455;28;19934;-86
2023/01/20 09:58:40;;;;;;;;;;;4.30;99.90;;;;;;5054621;28;19929;-86
2023/01/20 10:01:12;;;;;;;;;;;4.30;99.90;;;;;;5036837;28;19925;-86
2023/01/20 10:03:41;;;;;;;;;;;4.30;99.90;;;;;;5030789;28;19982;-87
2023/01/20 10:06:11;;;;;;;;;;;4.50;99.90;;;;;;5030787;28;19925;-87
2023/01/20 10:08:43;;;;;;;;;;;4.50;99.90;;;;;;5053138;28;20195;-87
2023/01/20 10:11:12;;;;;;;;;;;4.60;99.90;;;;;;5009029;28;20062;-87
2023/01/20 10:13:45;;;;;;;;;;;4.70;99.90;;;;;;5032901;28;19952;-88
2023/01/20 10:16:18;;;;;;;;;;;4.70;99.90;;;;;;5010229;28;20338;-85
2023/01/20 10:18:47;;;;;;;;;;;4.60;99.90;;;;;;5107371;28;20000;-84
2023/01/20 10:21:17;;;;;;;;;;;4.70;99.90;;;;;;5089722;28;19969;-84
2023/01/20 10:23:49;;;;;;;;;;;5.20;99.90;;;;;;5102362;28;19931;-85
2023/01/20 10:26:17;;;;;;;;;;;4.80;99.90;;;;;;5097824;28;19939;-84
2023/01/20 10:28:51;;;;;;;;;;;4.90;99.90;;;;;;5088371;28;20356;-84
2023/01/20 10:31:21;;;;;;;;;;;5.00;99.90;;;;;;5111080;28;19951;-85
2023/01/20 10:33:48;;;;;;;;;;;5.00;99.90;;;;;;5092476;28;19932;-82
2023/01/20 10:36:18;;;;;;;;;;;5.10;99.90;;;;;;5098060;28;19955;-83
2023/01/20 10:38:51;;;;;;;;;;;5.10;99.90;;;;;;5096196;28;19931;-82
2023/01/20 10:41:21;;;;;;;;;;;5.10;99.90;;;;;;5102515;28;19919;-83
2023/01/20 10:43:48;;;;;;;;;;;5.00;99.90;;;;;;5113540;28;20324;-83
2023/01/20 10:46:21;;;;;;;;;;;5.10;99.90;;;;;;5095717;28;19934;-83
2023/01/20 10:49:01;;;;;;;;;;;5.10;99.90;;;;;;5103772;28;19932;-85
2023/01/20 10:51:33;;;;;;;;;;;5.10;99.90;;;;;;5104856;28;19983;-86
2023/01/20 10:54:07;;;;;;;;;;;5.10;99.90;;;;;;5099893;28;19935;-85
2023/01/20 10:56:35;;;;;;;;;;;5.10;99.90;;;;;;5095368;28;19951;-85
2023/01/20 10:59:04;;;;;;;;;;;5.10;99.90;;;;;;5112379;28;20706;-86
2023/01/20 11:01:31;;;;;;;;;;;5.00;99.90;;;;;;5112438;28;19924;-86
2023/01/20 11:03:57;;;;;;;;;;;5.00;99.90;;;;;;5112241;28;19928;-87
2023/01/20 11:06:25;;;;;;;;;;;5.00;99.90;;;;;;5092376;28;19931;-86
2023/01/20 11:08:53;;;;;;;;;;;5.00;99.90;;;;;;5093498;28;19963;-86
2023/01/20 11:11:22;;;;;;;;;;;5.00;99.90;;;;;;5088352;28;20405;-86
2023/01/20 11:13:50;;;;;;;;;;;5.10;99.90;;;;;;5114451;28;19924;-86
2023/01/20 11:16:19;;;;;;;;;;;5.10;99.90;;;;;;5095139;28;20001;-86
2023/01/20 11:19:06;;;;;;;;;;;5.10;99.90;;;;;;5021006;28;19935;-86
2023/01/20 11:21:35;;;;;;;;;;;5.10;99.90;;;;;;5069950;28;19958;-86
2023/01/20 11:24:03;;;;;;;;;;;5.00;99.90;;;;;;5097723;28;19927;-86
2023/01/20 11:26:35;;;;;;;;;;;5.00;99.90;;;;;;5021853;28;19941;-86
2023/01/20 11:29:03;;;;;;;;;;;5.10;99.90;;;;;;5008816;28;19930;-86
2023/01/20 11:31:36;;;;;;;;;;;6.20;99.90;;;;;;5036983;28;19929;-88
2023/01/20 11:34:19;;;;;;;;;;;5.20;99.90;;;;;;5035680;28;19985;-88
2023/01/20 11:36:46;;;;;;;;;;;5.30;99.90;;;;;;5024897;28;20063;-88
2023/01/20 11:39:25;;;;;;;;;;;5.30;99.90;;;;;;5060594;28;19930;-88
2023/01/20 11:42:09;;;;;;;;;;;5.30;99.90;;;;;;5024358;28;20030;-89
2023/01/20 11:44:41;;;;;;;;;;;5.20;99.90;;;;;;5045069;28;19968;-89
2023/01/20 11:47:16;;;;;;;;;;;5.10;99.90;;;;;;5029965;28;19959;-89
2023/01/20 11:49:43;;;;;;;;;;;5.20;99.90;;;;;;5039931;28;19964;-88
2023/01/20 11:52:19;;;;;;;;;;;4.60;99.90;;;;;;5010417;28;19930;-88
2023/01/20 11:54:46;;;;;;;;;;;5.30;99.90;;;;;;5014573;28;20007;-89
2023/01/20 11:57:16;;;;;;;;;;;5.30;99.90;;;;;;5053304;28;19982;-88
2023/01/20 11:59:48;;;;;;;;;;;5.30;99.90;;;;;;5002660;28;19941;-89
2023/01/20 12:02:22;;;;;;;;;;;5.40;99.90;;;;;;5029233;28;20390;-86
2023/01/20 12:05:05;;;;;;;;;;;5.50;99.90;;;;;;5001907;28;19940;-85
2023/01/20 12:07:34;;;;;;;;;;;5.60;99.90;;;;;;5001444;28;19929;-86
2023/01/20 12:10:04;;;;;;;;;;;5.60;99.90;;;;;;5002140;28;19953;-86
2023/01/20 12:12:38;;;;;;;;;;;5.60;99.90;;;;;;5003409;28;19929;-86
2023/01/20 12:15:13;;;;;;;;;;;5.70;99.90;;;;;;5003561;28;20275;-85
2023/01/20 12:17:51;;;;;;;;;;;5.70;99.90;;;;;;5065254;28;19927;-86
2023/01/20 12:20:23;;;;;;;;;;;5.70;99.90;;;;;;5095447;28;20284;-85
2023/01/20 12:22:55;;;;;;;;;;;5.70;99.90;;;;;;5089237;28;19930;-84
2023/01/20 12:25:23;;;;;;;;;;;5.50;99.90;;;;;;5110909;28;19991;-84
2023/01/20 12:27:53;;;;;;;;;;;5.60;99.90;;;;;;5108738;28;20328;-84
2023/01/20 12:30:39;;;;;;;;;;;5.40;99.90;;;;;;5105950;28;19936;-84
2023/01/20 12:33:12;;;;;;;;;;;5.50;99.90;;;;;;5087528;28;19928;-83
2023/01/20 12:35:45;;;;;;;;;;;5.40;99.90;;;;;;5094114;28;19939;-83
2023/01/20 12:38:18;;;;;;;;;;;5.40;99.90;;;;;;5112140;28;19927;-83
2023/01/20 12:40:47;;;;;;;;;;;5.40;99.90;;;;;;5113666;28;19970;-84
2023/01/20 12:43:36;;;;;;;;;;;5.40;99.90;;;;;;5117944;27;19924;-83
2023/01/20 12:46:12;;;;;;;;;;;5.40;99.90;;;;;;5130870;27;19912;-85
2023/01/20 12:48:44;;;;;;;;;;;5.30;99.90;;;;;;5127702;28;19967;-84
2023/01/20 12:51:21;;;;;;;;;;;5.30;99.90;;;;;;5098730;28;19924;-83
2023/01/20 12:54:04;;;;;;;;;;;5.30;99.90;;;;;;5085226;28;20447;-83
2023/01/20 12:56:39;;;;;;;;;;;5.20;99.90;;;;;;5108851;28;19931;-83
2023/01/20 12:59:12;;;;;;;;;;;5.10;99.90;;;;;;5104917;28;19928;-84
2023/01/20 13:01:42;;;;;;;;;;;5.10;99.90;;;;;;5109246;28;19949;-83
2023/01/20 13:04:30;;;;;;;;;;;5.10;99.90;;;;;;5125377;27;19963;-86
2023/01/20 13:07:03;;;;;;;;;;;5.00;99.90;;;;;;5104323;28;19931;-86
2023/01/20 13:09:36;;;;;;;;;;;5.00;99.90;;;;;;5107328;28;20034;-87
2023/01/20 13:12:09;;;;;;;;;;;5.00;99.90;;;;;;5087684;28;20588;-86
2023/01/20 13:14:41;;;;;;;;;;;5.00;99.90;;;;;;5100034;28;19927;-85
2023/01/20 13:17:12;;;;;;;;;;;4.90;99.90;;;;;;5117601;28;19927;-85
2023/01/20 13:19:41;;;;;;;;;;;4.90;99.90;;;;;;5125598;28;19924;-85
2023/01/20 13:22:10;;;;;;;;;;;4.90;99.90;;;;;;5107299;28;20193;-87
2023/01/20 13:24:38;;;;;;;;;;;4.90;99.90;;;;;;5128501;27;19924;-88
2023/01/20 13:27:05;;;;;;;;;;;4.90;99.90;;;;;;5121068;28;19930;-84
2023/01/20 13:29:43;;;;;;;;;;;4.90;99.90;;;;;;5112002;28;19951;-84
2023/01/20 13:32:29;;;;;;;;;;;4.90;99.90;;;;;;5119557;28;19928;-84
2023/01/20 13:34:56;;;;;;;;;;;4.90;99.90;;;;;;5095224;28;19994;-83
2023/01/20 13:37:27;;;;;;;;;;;4.90;99.90;;;;;;5113948;28;19934;-85
2023/01/20 13:39:55;;;;;;;;;;;4.90;99.90;;;;;;5115220;28;19935;-84
2023/01/20 13:42:29;;;;;;;;;;;4.80;99.90;;;;;;5113290;28;20009;-85
2023/01/20 13:45:15;;;;;;;;;;;4.80;99.90;;;;;;5113239;28;19928;-84
2023/01/20 13:47:51;;;;;;;;;;;4.70;99.90;;;;;;5094636;28;19924;-85
2023/01/20 13:50:22;;;;;;;;;;;4.80;99.90;;;;;;5107759;28;19931;-85
2023/01/20 13:53:02;;;;;;;;;;;4.90;99.90;;;;;;5111753;28;20213;-85
2023/01/20 13:55:44;;;;;;;;;;;5.00;99.90;;;;;;5081997;28;20057;-85
2023/01/20 13:58:12;;;;;;;;;;;4.90;99.90;;;;;;5106936;28;19924;-85
2023/01/20 14:00:39;;;;;;;;;;;4.90;99.90;;;;;;5113920;28;19928;-84
2023/01/20 14:03:12;;;;;;;;;;;4.90;99.90;;;;;;5115035;28;19927;-85
2023/01/20 14:05:39;;;;;;;;;;;4.90;99.90;;;;;;5096642;28;19927;-85
2023/01/20 14:08:13;;;;;;;;;;;5.00;99.90;;;;;;5111273;27;20026;-84
2023/01/20 14:10:39;;;;;;;;;;;5.00;99.90;;;;;;5111798;28;19935;-83
2023/01/20 14:13:08;;;;;;;;;;;5.00;99.90;;;;;;5092784;28;19923;-82
2023/01/20 14:15:36;;;;;;;;;;;5.00;99.90;;;;;;5111133;28;19931;-83
2023/01/20 14:18:04;;;;;;;;;;;5.00;99.90;;;;;;5107766;28;19935;-83
2023/01/20 14:20:32;;;;;;;;;;;4.90;99.90;;;;;;5105497;28;19927;-84
2023/01/20 14:23:16;;;;;;;;;;;4.90;99.90;;;;;;5111037;28;19928;-85
2023/01/20 14:25:55;;;;;;;;;;;4.90;99.90;;;;;;5094508;28;20316;-85
2023/01/20 14:28:22;;;;;;;;;;;4.80;99.90;;;;;;5107853;28;19923;-85
2023/01/20 14:30:49;;;;;;;;;;;4.70;99.90;;;;;;5109264;28;19932;-84
2023/01/20 14:33:16;;;;;;;;;;;4.60;99.90;;;;;;5092177;28;19943;-85
2023/01/20 14:35:44;;;;;;;;;;;4.60;99.90;;;;;;5114271;28;20750;-86
2023/01/20 14:38:16;;;;;;;;;;;4.60;99.90;;;;;;5113048;28;20036;-84
2023/01/20 14:40:43;;;;;;;;;;;4.60;99.90;;;;;;5113701;28;19927;-85
2023/01/20 14:43:15;;;;;;;;;;;4.50;99.90;;;;;;5095052;28;19946;-85
2023/01/20 14:45:43;;;;;;;;;;;4.50;99.90;;;;;;5104806;28;19928;-85
2023/01/20 14:48:10;;;;;;;;;;;4.50;99.90;;;;;;5092195;28;19928;-86
2023/01/20 14:50:37;;;;;;;;;;;4.40;99.90;;;;;;5115025;28;20358;-84
2023/01/20 14:53:06;;;;;;;;;;;4.30;99.90;;;;;;5097153;28;19928;-85
2023/01/20 14:55:34;;;;;;;;;;;4.30;99.90;;;;;;5115979;28;19931;-84
2023/01/20 14:58:01;;;;;;;;;;;4.20;99.90;;;;;;5112916;28;19928;-85
2023/01/20 15:00:29;;;;;;;;;;;4.20;99.90;;;;;;5113786;28;19927;-84